sensor_id;sensor_type;location;lat;lon;timestamp;pressure;altitude;pressure_sealevel;temperature;humidity
55550;BME280;41397;49.972;18.944;2022-07-23T00:03:49;101915.22;;;27.30;64.73
55550;BME280;41397;49.972;18.944;2022-07-23T00:09:03;101918.64;;;27.25;64.16
55550;BME280;41397;49.972;18.944;2022-07-23T00:14:16;101916.67;;;27.19;64.87
55550;BME280;41397;49.972;18.944;2022-07-23T00:19:30;101930.67;;;27.12;64.73
55550;BME280;41397;49.972;18.944;2022-07-23T00:20:08;101928.05;;;27.11;64.63
55550;BME280;41397;49.972;18.944;2022-07-23T00:24:43;101920.72;;;27.10;64.47
55550;BME280;41397;49.972;18.944;2022-07-23T00:29:57;101928.22;;;27.03;65.46
55550;BME280;41397;49.972;18.944;2022-07-23T00:35:10;101925.17;;;26.97;65.40
55550;BME280;41397;49.972;18.944;2022-07-23T00:40:25;101930.53;;;26.92;65.00
55550;BME280;41397;49.972;18.944;2022-07-23T00:45:39;101929.65;;;26.85;65.82
55550;BME280;41397;49.972;18.944;2022-07-23T00:50:22;101923.56;;;26.82;65.74
55550;BME280;41397;49.972;18.944;2022-07-23T00:50:53;101928.53;;;26.79;65.61
55550;BME280;41397;49.972;18.944;2022-07-23T00:56:07;101923.53;;;26.75;65.68
55550;BME280;41397;49.972;18.944;2022-07-23T01:01:21;101929.12;;;26.68;65.82
55550;BME280;41397;49.972;18.944;2022-07-23T01:06:38;101935.34;;;26.64;65.43
55550;BME280;41397;49.972;18.944;2022-07-23T01:11:55;101920.59;;;26.55;65.85
55550;BME280;41397;49.972;18.944;2022-07-23T01:17:12;101922.63;;;26.46;65.87
55550;BME280;41397;49.972;18.944;2022-07-23T01:20:36;101918.70;;;26.41;66.12
55550;BME280;41397;49.972;18.944;2022-07-23T01:22:30;101923.86;;;26.37;66.06
55550;BME280;41397;49.972;18.944;2022-07-23T01:27:43;101911.93;;;26.28;66.32
55550;BME280;41397;49.972;18.944;2022-07-23T01:32:57;101913.34;;;26.18;66.34
55550;BME280;41397;49.972;18.944;2022-07-23T01:38:10;101913.94;;;26.13;66.28
55550;BME280;41397;49.972;18.944;2022-07-23T01:43:24;101919.28;;;26.08;65.85
55550;BME280;41397;49.972;18.944;2022-07-23T01:48:38;101913.81;;;26.00;66.37
55550;BME280;41397;49.972;18.944;2022-07-23T01:50:50;101911.41;;;25.97;66.33
55550;BME280;41397;49.972;18.944;2022-07-23T01:53:51;101924.11;;;25.93;66.33
55550;BME280;41397;49.972;18.944;2022-07-23T01:59:05;101908.75;;;25.88;66.07
55550;BME280;41397;49.972;18.944;2022-07-23T02:04:19;101918.79;;;25.83;66.51
55550;BME280;41397;49.972;18.944;2022-07-23T02:09:34;101912.91;;;25.78;66.32
55550;BME280;41397;49.972;18.944;2022-07-23T02:14:48;101914.39;;;25.74;66.97
55550;BME280;41397;49.972;18.944;2022-07-23T02:20:02;101917.79;;;25.69;67.17
55550;BME280;41397;49.972;18.944;2022-07-23T02:21:04;101921.00;;;25.66;67.62
55550;BME280;41397;49.972;18.944;2022-07-23T02:25:16;101917.91;;;25.61;67.66
55550;BME280;41397;49.972;18.944;2022-07-23T02:30:29;101918.49;;;25.56;67.70
55550;BME280;41397;49.972;18.944;2022-07-23T02:35:43;101920.16;;;25.51;67.79
55550;BME280;41397;49.972;18.944;2022-07-23T02:41:00;101920.95;;;25.44;68.03
55550;BME280;41397;49.972;18.944;2022-07-23T02:46:13;101919.13;;;25.37;68.05
55550;BME280;41397;49.972;18.944;2022-07-23T02:51:17;101910.26;;;25.33;67.84
55550;BME280;41397;49.972;18.944;2022-07-23T02:51:31;101916.04;;;25.32;68.14
55550;BME280;41397;49.972;18.944;2022-07-23T02:56:45;101906.13;;;25.29;68.32
55550;BME280;41397;49.972;18.944;2022-07-23T03:01:59;101900.03;;;25.25;68.18
55550;BME280;41397;49.972;18.944;2022-07-23T03:07:12;101905.36;;;25.20;68.17
55550;BME280;41397;49.972;18.944;2022-07-23T03:12:26;101903.63;;;25.19;68.28
55550;BME280;41397;49.972;18.944;2022-07-23T03:17:40;101916.38;;;25.22;67.79
55550;BME280;41397;49.972;18.944;2022-07-23T03:21:31;101914.89;;;25.26;67.50
55550;BME280;41397;49.972;18.944;2022-07-23T03:22:53;101911.05;;;25.27;67.66
55550;BME280;41397;49.972;18.944;2022-07-23T03:28:07;101906.27;;;25.42;67.83
55550;BME280;41397;49.972;18.944;2022-07-23T03:33:21;101909.97;;;25.64;66.58
55550;BME280;41397;49.972;18.944;2022-07-23T03:44:23;101906.89;;;25.96;65.05
55550;BME280;41397;49.972;18.944;2022-07-23T03:49:36;101913.75;;;26.15;65.00
55550;BME280;41397;49.972;18.944;2022-07-23T03:51:45;101919.75;;;26.33;64.50
55550;BME280;41397;49.972;18.944;2022-07-23T03:54:50;101911.54;;;26.60;63.39
55550;BME280;41397;49.972;18.944;2022-07-23T04:00:05;101908.08;;;26.92;62.78
55550;BME280;41397;49.972;18.944;2022-07-23T04:05:22;101907.94;;;27.49;60.72
55550;BME280;41397;49.972;18.944;2022-07-23T04:10:36;101905.05;;;27.97;59.30
55550;BME280;41397;49.972;18.944;2022-07-23T04:15:49;101901.40;;;28.49;58.04
55550;BME280;41397;49.972;18.944;2022-07-23T04:21:04;101902.38;;;28.95;56.33
55550;BME280;41397;49.972;18.944;2022-07-23T04:21:58;101898.67;;;29.01;55.94
55550;BME280;41397;49.972;18.944;2022-07-23T04:26:17;101899.47;;;29.28;55.28
55550;BME280;41397;49.972;18.944;2022-07-23T04:31:31;101904.28;;;29.59;54.21
55550;BME280;41397;49.972;18.944;2022-07-23T04:36:45;101897.59;;;29.54;54.26
55550;BME280;41397;49.972;18.944;2022-07-23T04:41:59;101900.27;;;29.42;54.71
55550;BME280;41397;49.972;18.944;2022-07-23T04:47:12;101888.69;;;29.57;54.59
55550;BME280;41397;49.972;18.944;2022-07-23T04:52:12;101891.05;;;29.67;54.29
55550;BME280;41397;49.972;18.944;2022-07-23T04:52:29;101890.41;;;29.64;54.11
55550;BME280;41397;49.972;18.944;2022-07-23T04:57:43;101880.84;;;29.65;53.93
55550;BME280;41397;49.972;18.944;2022-07-23T05:02:56;101882.54;;;29.73;52.77
55550;BME280;41397;49.972;18.944;2022-07-23T05:08:10;101883.46;;;29.67;52.83
55550;BME280;41397;49.972;18.944;2022-07-23T05:13:24;101877.84;;;29.60;53.88
55550;BME280;41397;49.972;18.944;2022-07-23T05:18:37;101881.38;;;29.88;53.44
55550;BME280;41397;49.972;18.944;2022-07-23T05:22:26;101881.14;;;30.14;52.13
55550;BME280;41397;49.972;18.944;2022-07-23T05:23:51;101877.42;;;30.20;52.10
55550;BME280;41397;49.972;18.944;2022-07-23T05:29:05;101869.38;;;30.67;50.81
55550;BME280;41397;49.972;18.944;2022-07-23T05:34:18;101870.20;;;31.11;49.42
55550;BME280;41397;49.972;18.944;2022-07-23T05:39:32;101863.24;;;31.74;48.32
55550;BME280;41397;49.972;18.944;2022-07-23T05:44:47;101867.40;;;32.14;47.44
55550;BME280;41397;49.972;18.944;2022-07-23T05:50:03;101846.49;;;32.38;47.78
55550;BME280;41397;49.972;18.944;2022-07-23T05:52:41;101848.02;;;32.53;46.98
55550;BME280;41397;49.972;18.944;2022-07-23T05:55:17;101844.92;;;32.54;46.79
55550;BME280;41397;49.972;18.944;2022-07-23T06:00:31;101834.34;;;32.61;46.61
55550;BME280;41397;49.972;18.944;2022-07-23T06:05:45;101842.18;;;32.71;46.42
55550;BME280;41397;49.972;18.944;2022-07-23T06:10:59;101833.23;;;33.14;45.50
55550;BME280;41397;49.972;18.944;2022-07-23T06:16:13;101836.95;;;33.15;45.08
55550;BME280;41397;49.972;18.944;2022-07-23T06:21:30;101822.72;;;33.55;44.56
55550;BME280;41397;49.972;18.944;2022-07-23T06:22:55;101826.51;;;33.61;44.29
55550;BME280;41397;49.972;18.944;2022-07-23T06:26:47;101831.96;;;33.79;44.01
55550;BME280;41397;49.972;18.944;2022-07-23T06:32:05;101838.35;;;34.03;42.91
55550;BME280;41397;49.972;18.944;2022-07-23T06:37:21;101836.23;;;34.28;43.41
55550;BME280;41397;49.972;18.944;2022-07-23T06:42:39;101831.97;;;34.47;42.05
55550;BME280;41397;49.972;18.944;2022-07-23T06:47:55;101836.95;;;34.57;40.74
55550;BME280;41397;49.972;18.944;2022-07-23T06:53:08;101824.49;;;34.58;40.09
55550;BME280;41397;49.972;18.944;2022-07-23T06:53:22;101817.07;;;34.57;39.93
55550;BME280;41397;49.972;18.944;2022-07-23T06:58:35;101829.98;;;34.86;40.82
55550;BME280;41397;49.972;18.944;2022-07-23T07:03:49;101826.67;;;35.11;39.68
55550;BME280;41397;49.972;18.944;2022-07-23T07:09:04;101827.23;;;35.13;38.26
55550;BME280;41397;49.972;18.944;2022-07-23T07:14:18;101824.10;;;35.37;38.22
55550;BME280;41397;49.972;18.944;2022-07-23T07:19:31;101824.04;;;35.32;37.98
55550;BME280;41397;49.972;18.944;2022-07-23T07:23:22;101830.70;;;35.43;37.69
55550;BME280;41397;49.972;18.944;2022-07-23T07:24:45;101825.02;;;35.43;37.78
55550;BME280;41397;49.972;18.944;2022-07-23T07:29:59;101832.16;;;35.45;37.87
55550;BME280;41397;49.972;18.944;2022-07-23T07:35:12;101840.06;;;35.65;38.14
55550;BME280;41397;49.972;18.944;2022-07-23T07:40:26;101839.70;;;35.56;37.85
55550;BME280;41397;49.972;18.944;2022-07-23T07:45:40;101839.47;;;35.63;38.15
55550;BME280;41397;49.972;18.944;2022-07-23T07:50:54;101840.73;;;35.72;38.24
55550;BME280;41397;49.972;18.944;2022-07-23T07:53:36;101843.88;;;35.76;38.68
55550;BME280;41397;49.972;18.944;2022-07-23T07:56:08;101856.95;;;35.72;38.47
55550;BME280;41397;49.972;18.944;2022-07-23T08:01:21;101838.23;;;35.54;39.00
55550;BME280;41397;49.972;18.944;2022-07-23T08:06:35;101825.48;;;35.56;39.51
55550;BME280;41397;49.972;18.944;2022-07-23T08:11:51;101818.78;;;35.46;37.94
55550;BME280;41397;49.972;18.944;2022-07-23T08:17:11;101812.92;;;35.85;38.57
55550;BME280;41397;49.972;18.944;2022-07-23T08:22:25;101799.33;;;35.92;37.30
55550;BME280;41397;49.972;18.944;2022-07-23T08:23:50;101786.33;;;35.69;38.29
55550;BME280;41397;49.972;18.944;2022-07-23T08:27:44;101791.80;;;36.08;37.83
55550;BME280;41397;49.972;18.944;2022-07-23T08:33:02;101803.29;;;36.23;36.01
55550;BME280;41397;49.972;18.944;2022-07-23T08:38:18;101789.08;;;36.28;36.81
55550;BME280;41397;49.972;18.944;2022-07-23T08:43:34;101783.63;;;36.21;37.12
55550;BME280;41397;49.972;18.944;2022-07-23T08:48:50;101786.90;;;36.40;37.91
55550;BME280;41397;49.972;18.944;2022-07-23T08:54:03;101789.66;;;36.73;36.17
55550;BME280;41397;49.972;18.944;2022-07-23T08:54:18;101795.05;;;36.69;36.22
55550;BME280;41397;49.972;18.944;2022-07-23T08:59:32;101780.42;;;37.08;37.01
55550;BME280;41397;49.972;18.944;2022-07-23T09:04:45;101783.40;;;37.49;35.37
55550;BME280;41397;49.972;18.944;2022-07-23T09:15:24;101784.25;;;37.75;34.83
55550;BME280;41397;49.972;18.944;2022-07-23T09:20:37;101784.84;;;37.77;34.70
55550;BME280;41397;49.972;18.944;2022-07-23T09:24:17;101789.39;;;37.83;34.10
55550;BME280;41397;49.972;18.944;2022-07-23T09:25:51;101780.26;;;37.61;34.14
55550;BME280;41397;49.972;18.944;2022-07-23T09:31:04;101779.70;;;37.79;30.84
55550;BME280;41397;49.972;18.944;2022-07-23T09:36:28;101787.40;;;37.94;29.66
55550;BME280;41397;49.972;18.944;2022-07-23T09:41:45;101779.44;;;38.01;31.61
55550;BME280;41397;49.972;18.944;2022-07-23T09:46:59;101773.98;;;37.74;32.40
55550;BME280;41397;49.972;18.944;2022-07-23T09:52:25;101777.38;;;37.76;29.68
55550;BME280;41397;49.972;18.944;2022-07-23T09:54:39;101783.99;;;37.82;30.13
55550;BME280;41397;49.972;18.944;2022-07-23T09:57:43;101772.53;;;37.92;30.91
55550;BME280;41397;49.972;18.944;2022-07-23T10:02:59;101769.09;;;37.95;29.97
55550;BME280;41397;49.972;18.944;2022-07-23T10:08:17;101768.85;;;38.07;30.77
55550;BME280;41397;49.972;18.944;2022-07-23T10:13:32;101754.23;;;38.34;30.64
55550;BME280;41397;49.972;18.944;2022-07-23T10:18:57;101760.74;;;38.55;31.20
55550;BME280;41397;49.972;18.944;2022-07-23T10:24:20;101753.00;;;38.60;29.73
55550;BME280;41397;49.972;18.944;2022-07-23T10:25:05;101740.14;;;38.58;30.31
55550;BME280;41397;49.972;18.944;2022-07-23T10:35:13;101738.27;;;38.98;28.63
55550;BME280;41397;49.972;18.944;2022-07-23T10:40:30;101740.77;;;39.10;29.69
55550;BME280;41397;49.972;18.944;2022-07-23T10:45:44;101732.91;;;38.81;29.05
55550;BME280;41397;49.972;18.944;2022-07-23T11:01:51;101714.13;;;39.14;26.90
55550;BME280;41397;49.972;18.944;2022-07-23T11:07:07;101698.31;;;39.27;27.75
55550;BME280;41397;49.972;18.944;2022-07-23T11:12:32;101706.94;;;39.22;27.15
55550;BME280;41397;49.972;18.944;2022-07-23T11:23:11;101695.16;;;39.23;27.32
55550;BME280;41397;49.972;18.944;2022-07-23T11:25:47;101692.62;;;39.22;28.39
55550;BME280;41397;49.972;18.944;2022-07-23T11:28:25;101689.95;;;38.96;28.10
55550;BME280;41397;49.972;18.944;2022-07-23T11:33:40;101679.16;;;39.22;28.52
55550;BME280;41397;49.972;18.944;2022-07-23T11:38:55;101674.56;;;39.26;29.04
55550;BME280;41397;49.972;18.944;2022-07-23T11:49:34;101666.38;;;39.49;28.68
55550;BME280;41397;49.972;18.944;2022-07-23T11:54:56;101651.90;;;39.64;29.03
55550;BME280;41397;49.972;18.944;2022-07-23T11:56:07;101647.70;;;39.57;29.04
55550;BME280;41397;49.972;18.944;2022-07-23T12:00:13;101637.09;;;39.57;28.59
55550;BME280;41397;49.972;18.944;2022-07-23T12:05:33;101636.49;;;39.60;29.25
55550;BME280;41397;49.972;18.944;2022-07-23T12:10:48;101633.57;;;39.65;28.90
55550;BME280;41397;49.972;18.944;2022-07-23T12:16:02;101634.54;;;39.21;28.43
55550;BME280;41397;49.972;18.944;2022-07-23T12:21:18;101637.29;;;38.97;28.98
55550;BME280;41397;49.972;18.944;2022-07-23T12:26:22;101630.20;;;38.90;28.77
55550;BME280;41397;49.972;18.944;2022-07-23T12:26:36;101624.19;;;38.86;29.02
55550;BME280;41397;49.972;18.944;2022-07-23T12:31:50;101611.23;;;38.99;29.66
55550;BME280;41397;49.972;18.944;2022-07-23T12:37:04;101600.88;;;39.08;29.89
55550;BME280;41397;49.972;18.944;2022-07-23T12:42:18;101597.66;;;39.15;29.34
55550;BME280;41397;49.972;18.944;2022-07-23T12:53:07;101584.20;;;39.15;29.10
55550;BME280;41397;49.972;18.944;2022-07-23T12:56:40;101574.92;;;38.99;29.04
55550;BME280;41397;49.972;18.944;2022-07-23T12:58:21;101575.29;;;38.88;29.21
55550;BME280;41397;49.972;18.944;2022-07-23T13:03:38;101581.77;;;38.59;29.85
55550;BME280;41397;49.972;18.944;2022-07-23T13:08:52;101574.69;;;38.41;30.13
55550;BME280;41397;49.972;18.944;2022-07-23T13:14:06;101561.03;;;38.28;30.31
55550;BME280;41397;49.972;18.944;2022-07-23T13:19:20;101558.60;;;38.01;29.77
55550;BME280;41397;49.972;18.944;2022-07-23T13:24:36;101548.09;;;37.81;30.95
55550;BME280;41397;49.972;18.944;2022-07-23T13:26:57;101542.98;;;37.72;31.17
55550;BME280;41397;49.972;18.944;2022-07-23T13:29:50;101536.18;;;37.58;31.04
55550;BME280;41397;49.972;18.944;2022-07-23T13:35:04;101536.81;;;37.09;32.30
55550;BME280;41397;49.972;18.944;2022-07-23T13:40:20;101592.02;;;36.52;36.38
55550;BME280;41397;49.972;18.944;2022-07-23T13:45:39;101696.41;;;35.13;43.67
55550;BME280;41397;49.972;18.944;2022-07-23T13:50:55;101623.34;;;33.09;44.47
55550;BME280;41397;49.972;18.944;2022-07-23T13:56:11;101643.20;;;31.41;47.53
55550;BME280;41397;49.972;18.944;2022-07-23T13:57:16;101628.41;;;31.27;47.53
55550;BME280;41397;49.972;18.944;2022-07-23T14:01:25;101610.45;;;30.49;50.04
55550;BME280;41397;49.972;18.944;2022-07-23T14:06:39;101594.05;;;29.91;51.91
55550;BME280;41397;49.972;18.944;2022-07-23T14:11:53;101599.53;;;29.42;53.88
55550;BME280;41397;49.972;18.944;2022-07-23T14:17:06;101596.45;;;28.94;55.32
55550;BME280;41397;49.972;18.944;2022-07-23T14:22:20;101594.21;;;29.03;59.35
55550;BME280;41397;49.972;18.944;2022-07-23T14:27:30;101597.88;;;29.10;58.07
55550;BME280;41397;49.972;18.944;2022-07-23T14:27:44;101601.16;;;29.07;58.40
55550;BME280;41397;49.972;18.944;2022-07-23T14:32:58;101615.00;;;29.08;61.24
55550;BME280;41397;49.972;18.944;2022-07-23T14:38:12;101615.67;;;28.72;61.42
55550;BME280;41397;49.972;18.944;2022-07-23T14:43:26;101627.34;;;28.75;60.81
55550;BME280;41397;49.972;18.944;2022-07-23T14:48:40;101675.56;;;28.92;60.98
55550;BME280;41397;49.972;18.944;2022-07-23T14:53:54;101702.75;;;28.08;64.99
55550;BME280;41397;49.972;18.944;2022-07-23T14:57:44;101686.56;;;27.44;65.89
55550;BME280;41397;49.972;18.944;2022-07-23T14:59:07;101685.93;;;27.49;66.25
55550;BME280;41397;49.972;18.944;2022-07-23T15:04:21;101698.69;;;27.64;64.48
55550;BME280;41397;49.972;18.944;2022-07-23T15:09:35;101692.55;;;28.14;65.11
55550;BME280;41397;49.972;18.944;2022-07-23T15:14:49;101699.75;;;28.62;63.35
55550;BME280;41397;49.972;18.944;2022-07-23T15:20:03;101697.89;;;28.87;59.35
55550;BME280;41397;49.972;18.944;2022-07-23T15:25:17;101695.75;;;29.21;60.02
55550;BME280;41397;49.972;18.944;2022-07-23T15:27:58;101690.41;;;29.38;57.87
55550;BME280;41397;49.972;18.944;2022-07-23T15:30:30;101705.26;;;29.52;58.19
55550;BME280;41397;49.972;18.944;2022-07-23T15:35:46;101714.60;;;29.52;56.12
55550;BME280;41397;49.972;18.944;2022-07-23T15:40:59;101694.04;;;29.45;56.56
55550;BME280;41397;49.972;18.944;2022-07-23T15:46:13;101692.81;;;29.66;56.97
55550;BME280;41397;49.972;18.944;2022-07-23T15:51:27;101675.81;;;29.48;58.78
55550;BME280;41397;49.972;18.944;2022-07-23T15:56:42;101682.38;;;29.41;57.86
55550;BME280;41397;49.972;18.944;2022-07-23T15:58:13;101686.09;;;29.35;58.43
55550;BME280;41397;49.972;18.944;2022-07-23T16:01:56;101687.97;;;29.16;59.29
55550;BME280;41397;49.972;18.944;2022-07-23T16:07:10;101685.27;;;28.96;60.55
55550;BME280;41397;49.972;18.944;2022-07-23T16:12:23;101683.50;;;29.09;60.96
55550;BME280;41397;49.972;18.944;2022-07-23T16:17:37;101683.23;;;29.17;61.22
55550;BME280;41397;49.972;18.944;2022-07-23T16:22:51;101692.92;;;28.89;59.98
55550;BME280;41397;49.972;18.944;2022-07-23T16:28:06;101699.40;;;28.90;60.19
55550;BME280;41397;49.972;18.944;2022-07-23T16:28:27;101705.04;;;28.90;60.25
55550;BME280;41397;49.972;18.944;2022-07-23T16:33:20;101721.41;;;28.68;61.63
55550;BME280;41397;49.972;18.944;2022-07-23T16:38:36;101728.75;;;28.69;60.83
55550;BME280;41397;49.972;18.944;2022-07-23T16:43:50;101747.45;;;28.50;61.58
55550;BME280;41397;49.972;18.944;2022-07-23T16:49:03;101740.41;;;28.72;61.10
55550;BME280;41397;49.972;18.944;2022-07-23T16:54:18;101709.55;;;28.97;61.01
55550;BME280;41397;49.972;18.944;2022-07-23T16:58:40;101732.97;;;28.91;60.38
55550;BME280;41397;49.972;18.944;2022-07-23T16:59:33;101731.89;;;28.92;60.20
55550;BME280;41397;49.972;18.944;2022-07-23T17:04:46;101737.48;;;29.06;61.42
55550;BME280;41397;49.972;18.944;2022-07-23T17:10:05;101735.70;;;29.11;62.79
55550;BME280;41397;49.972;18.944;2022-07-23T17:15:20;101774.26;;;29.11;64.98
55550;BME280;41397;49.972;18.944;2022-07-23T17:20:37;101776.45;;;29.02;66.17
55550;BME280;41397;49.972;18.944;2022-07-23T17:25:51;101778.45;;;28.95;65.86
55550;BME280;41397;49.972;18.944;2022-07-23T17:28:54;101801.85;;;28.95;66.75
55550;BME280;41397;49.972;18.944;2022-07-23T17:31:05;101800.76;;;28.96;66.39
55550;BME280;41397;49.972;18.944;2022-07-23T17:36:19;101792.81;;;28.80;68.51
55550;BME280;41397;49.972;18.944;2022-07-23T17:41:36;101819.05;;;28.67;69.93
55550;BME280;41397;49.972;18.944;2022-07-23T17:46:50;101827.73;;;28.66;68.49
55550;BME280;41397;49.972;18.944;2022-07-23T17:52:04;101806.73;;;28.62;69.43
55550;BME280;41397;49.972;18.944;2022-07-23T17:57:18;101807.65;;;28.29;70.03
55550;BME280;41397;49.972;18.944;2022-07-23T17:59:08;101809.17;;;28.18;70.14
55550;BME280;41397;49.972;18.944;2022-07-23T18:02:31;101817.84;;;28.17;70.36
55550;BME280;41397;49.972;18.944;2022-07-23T18:07:45;101801.38;;;28.20;70.60
55550;BME280;41397;49.972;18.944;2022-07-23T18:12:59;101800.55;;;27.93;70.29
55550;BME280;41397;49.972;18.944;2022-07-23T18:18:25;101808.96;;;27.66;70.49
55550;BME280;41397;49.972;18.944;2022-07-23T18:23:41;101831.45;;;27.73;70.26
55550;BME280;41397;49.972;18.944;2022-07-23T18:28:54;101836.62;;;27.56;70.95
55550;BME280;41397;49.972;18.944;2022-07-23T18:29:21;101834.87;;;27.55;70.73
55550;BME280;41397;49.972;18.944;2022-07-23T18:34:08;101856.29;;;27.63;70.14
55550;BME280;41397;49.972;18.944;2022-07-23T18:39:21;101870.50;;;27.41;70.96
55550;BME280;41397;49.972;18.944;2022-07-23T18:44:38;101878.45;;;27.25;71.26
55550;BME280;41397;49.972;18.944;2022-07-23T18:49:54;101885.16;;;27.23;69.87
55550;BME280;41397;49.972;18.944;2022-07-23T18:55:08;101891.35;;;27.12;70.49
55550;BME280;41397;49.972;18.944;2022-07-23T18:59:35;101899.65;;;26.92;71.02
55550;BME280;41397;49.972;18.944;2022-07-23T19:00:22;101896.65;;;26.94;70.77
55550;BME280;41397;49.972;18.944;2022-07-23T19:05:35;101906.84;;;27.01;70.02
55550;BME280;41397;49.972;18.944;2022-07-23T19:10:51;101926.58;;;27.15;70.62
55550;BME280;41397;49.972;18.944;2022-07-23T19:16:05;101914.98;;;27.25;69.70
55550;BME280;41397;49.972;18.944;2022-07-23T19:21:19;101912.83;;;27.27;69.67
55550;BME280;41397;49.972;18.944;2022-07-23T19:26:32;101919.30;;;27.27;69.26
55550;BME280;41397;49.972;18.944;2022-07-23T19:29:48;101921.02;;;27.28;68.87
55550;BME280;41397;49.972;18.944;2022-07-23T19:31:46;101918.64;;;27.25;69.12
55550;BME280;41397;49.972;18.944;2022-07-23T19:36:59;101926.64;;;27.28;70.09
55550;BME280;41397;49.972;18.944;2022-07-23T19:42:13;101917.35;;;27.28;70.72
55550;BME280;41397;49.972;18.944;2022-07-23T19:47:27;101930.34;;;27.29;71.59
55550;BME280;41397;49.972;18.944;2022-07-23T19:58:39;101920.63;;;27.31;71.25
55550;BME280;41397;49.972;18.944;2022-07-23T20:00:09;101924.30;;;27.32;71.09
55550;BME280;41397;49.972;18.944;2022-07-23T20:03:53;101924.73;;;27.29;70.91
55550;BME280;41397;49.972;18.944;2022-07-23T20:09:06;101928.40;;;27.29;71.03
55550;BME280;41397;49.972;18.944;2022-07-23T20:14:20;101941.59;;;27.29;70.95
55550;BME280;41397;49.972;18.944;2022-07-23T20:19:33;101931.38;;;27.21;71.52
55550;BME280;41397;49.972;18.944;2022-07-23T20:24:47;101921.20;;;27.20;71.16
55550;BME280;41397;49.972;18.944;2022-07-23T20:30:01;101921.01;;;27.21;71.19
55550;BME280;41397;49.972;18.944;2022-07-23T20:30:23;101921.20;;;27.20;71.37
55550;BME280;41397;49.972;18.944;2022-07-23T20:35:15;101922.68;;;27.16;71.03
55550;BME280;41397;49.972;18.944;2022-07-23T20:40:28;101934.95;;;27.08;71.45
55550;BME280;41397;49.972;18.944;2022-07-23T20:45:42;101928.67;;;27.06;71.16
55550;BME280;41397;49.972;18.944;2022-07-23T20:50:56;101923.48;;;27.03;71.50
55550;BME280;41397;49.972;18.944;2022-07-23T20:56:09;101922.59;;;26.96;71.46
55550;BME280;41397;49.972;18.944;2022-07-23T21:00:37;101922.59;;;26.96;71.26
55550;BME280;41397;49.972;18.944;2022-07-23T21:01:23;101917.39;;;26.93;71.48
55550;BME280;41397;49.972;18.944;2022-07-23T21:06:39;101928.63;;;26.93;71.21
55550;BME280;41397;49.972;18.944;2022-07-23T21:11:52;101920.14;;;26.86;71.74
55550;BME280;41397;49.972;18.944;2022-07-23T21:17:06;101933.93;;;26.81;71.29
55550;BME280;41397;49.972;18.944;2022-07-23T21:22:19;101945.54;;;26.71;72.35
55550;BME280;41397;49.972;18.944;2022-07-23T21:27:33;101945.73;;;26.70;71.50
55550;BME280;41397;49.972;18.944;2022-07-23T21:30:51;101950.03;;;26.66;71.92
55550;BME280;41397;49.972;18.944;2022-07-23T21:32:46;101950.83;;;26.60;72.16
55550;BME280;41397;49.972;18.944;2022-07-23T21:38:00;101960.45;;;26.50;72.13
55550;BME280;41397;49.972;18.944;2022-07-23T21:43:13;101977.24;;;26.44;72.76
55550;BME280;41397;49.972;18.944;2022-07-23T21:48:27;101982.37;;;26.40;72.97
55550;BME280;41397;49.972;18.944;2022-07-23T21:53:41;101982.10;;;26.35;73.26
55550;BME280;41397;49.972;18.944;2022-07-23T21:58:54;101979.30;;;26.35;72.56
55550;BME280;41397;49.972;18.944;2022-07-23T22:01:05;101978.02;;;26.38;72.30
55550;BME280;41397;49.972;18.944;2022-07-23T22:04:08;101989.24;;;26.38;72.97
55550;BME280;41397;49.972;18.944;2022-07-23T22:09:21;101997.48;;;26.18;73.38
55550;BME280;41397;49.972;18.944;2022-07-23T22:14:36;102006.46;;;25.91;73.65
55550;BME280;41397;49.972;18.944;2022-07-23T22:24:25;102016.66;;;25.63;75.84
55550;BME280;41397;49.972;18.944;2022-07-23T22:29:39;102002.11;;;25.23;77.05
55550;BME280;41397;49.972;18.944;2022-07-23T22:34:53;101999.56;;;24.98;78.53
55550;BME280;41397;49.972;18.944;2022-07-23T22:40:07;101994.08;;;25.05;77.80
55550;BME280;41397;49.972;18.944;2022-07-23T22:45:21;102004.50;;;25.11;78.17
55550;BME280;41397;49.972;18.944;2022-07-23T22:49:25;102015.64;;;25.19;78.37
55550;BME280;41397;49.972;18.944;2022-07-23T22:50:35;102024.04;;;25.19;78.17
55550;BME280;41397;49.972;18.944;2022-07-23T22:55:48;102009.95;;;25.28;77.45
55550;BME280;41397;49.972;18.944;2022-07-23T23:01:02;102011.37;;;25.23;77.36
55550;BME280;41397;49.972;18.944;2022-07-23T23:06:16;102023.70;;;25.14;78.27
55550;BME280;41397;49.972;18.944;2022-07-23T23:11:29;102018.44;;;25.19;77.48
55550;BME280;41397;49.972;18.944;2022-07-23T23:16:43;102026.66;;;25.21;77.23
55550;BME280;41397;49.972;18.944;2022-07-23T23:19:40;102034.55;;;25.17;77.29
55550;BME280;41397;49.972;18.944;2022-07-23T23:21:56;102031.75;;;25.17;77.24
55550;BME280;41397;49.972;18.944;2022-07-23T23:27:11;102038.96;;;25.12;76.92
55550;BME280;41397;49.972;18.944;2022-07-23T23:32:25;102040.61;;;25.06;76.21
55550;BME280;41397;49.972;18.944;2022-07-23T23:37:39;102051.88;;;24.98;76.62
55550;BME280;41397;49.972;18.944;2022-07-23T23:42:55;102063.30;;;24.96;77.07
55550;BME280;41397;49.972;18.944;2022-07-23T23:48:09;102084.13;;;24.94;76.83
55550;BME280;41397;49.972;18.944;2022-07-23T23:49:54;102086.03;;;24.93;76.99
55550;BME280;41397;49.972;18.944;2022-07-23T23:53:22;102099.16;;;24.93;77.05
55550;BME280;41397;49.972;18.944;2022-07-23T23:58:36;102100.93;;;24.94;77.40
